SLL weather

Salalah Airport
Salalah, Dhofar Governorate, Oman

Public forecast

Using degrees Celsius for public forecast. Weather courtesy of forecast.io.

Current aviation weather report (METAR) for Salalah Airport

Retrieved 2020/01/19 05:50 UTC (1 hour ago):

OOSA 190550Z VRB03KT 9999 SCT030 26/13 Q1019 NOSIG

Aviation forecast (TAF) for Salalah Airport

Retrieved 2020/01/19 06:00 UTC (59 minutes ago):

TAF OOSA 190500Z 1906/2012 VRB03KT CAVOK BECMG 1907/1909 15009KT BECMG 1913/1915 VRB03KT BECMG 2007/2009 16009KT